createdAt,value
2019-04-05T00:02:19.242Z,1.71
2019-04-05T00:04:47.696Z,1.69
2019-04-05T00:07:16.257Z,1.64
2019-04-05T00:09:44.842Z,1.64
2019-04-05T00:12:13.386Z,1.59
2019-04-05T00:14:41.852Z,1.55
2019-04-05T00:17:10.272Z,1.47
2019-04-05T00:19:38.766Z,1.46
2019-04-05T00:22:07.227Z,1.42
2019-04-05T00:24:35.680Z,1.40
2019-04-05T00:27:04.300Z,1.56
2019-04-05T00:29:32.834Z,1.47
2019-04-05T00:32:01.306Z,1.42
2019-04-05T00:34:29.733Z,1.42
2019-04-05T00:36:58.224Z,1.37
2019-04-05T00:39:26.681Z,1.39
2019-04-05T00:41:55.106Z,1.38
2019-04-05T00:44:23.639Z,1.38
2019-04-05T00:46:52.155Z,1.42
2019-04-05T00:49:20.667Z,1.53
2019-04-05T00:51:49.262Z,1.49
2019-04-05T00:54:17.792Z,1.43
2019-04-05T00:56:46.452Z,1.47
2019-04-05T00:59:15.048Z,1.47
2019-04-05T01:01:43.609Z,1.48
2019-04-05T01:04:12.033Z,1.56
2019-04-05T01:06:40.632Z,1.51
2019-04-05T01:09:09.248Z,1.47
2019-04-05T01:11:37.864Z,1.53
2019-04-05T01:14:06.437Z,1.55
2019-04-05T01:16:35.053Z,1.49
2019-04-05T01:19:04.158Z,1.52
2019-04-05T01:21:35.750Z,1.52
2019-04-05T01:24:05.434Z,1.51
2019-04-05T01:26:36.096Z,1.53
2019-04-05T01:29:04.704Z,1.49
2019-04-05T01:31:34.862Z,1.52
2019-04-05T01:34:05.562Z,1.56
2019-04-05T01:36:33.642Z,1.54
2019-04-05T01:39:02.098Z,1.53
2019-04-05T01:41:30.705Z,1.53
2019-04-05T01:43:59.240Z,1.54
2019-04-05T01:46:27.723Z,1.50
2019-04-05T01:48:56.511Z,1.55
2019-04-05T01:51:25.293Z,1.53
2019-04-05T01:53:53.855Z,1.56
2019-04-05T01:56:22.331Z,1.53
2019-04-05T01:58:50.744Z,1.55
2019-04-05T02:01:19.286Z,1.55
2019-04-05T02:03:47.697Z,1.61
2019-04-05T02:06:16.282Z,1.62
2019-04-05T02:08:44.968Z,1.60
2019-04-05T02:11:13.556Z,1.61
2019-04-05T02:13:42.170Z,1.60
2019-04-05T02:16:10.806Z,1.68
2019-04-05T02:18:39.296Z,1.69
2019-04-05T02:21:08.273Z,1.63
2019-04-05T02:23:36.832Z,1.92
2019-04-05T02:26:05.584Z,1.93
2019-04-05T02:28:34.167Z,1.82
2019-04-05T02:31:02.663Z,2.03
2019-04-05T02:33:31.165Z,1.85
2019-04-05T02:35:59.678Z,1.93
2019-04-05T02:38:28.260Z,1.84
2019-04-05T02:40:59.099Z,1.49
2019-04-05T02:43:31.052Z,1.60
2019-04-05T02:45:59.945Z,1.62
2019-04-05T02:48:30.889Z,1.63
2019-04-05T02:51:02.641Z,1.57
2019-04-05T02:53:33.676Z,1.63
2019-04-05T02:56:03.396Z,1.53
2019-04-05T02:58:33.800Z,1.29
2019-04-05T03:01:02.772Z,1.42
2019-04-05T03:03:31.366Z,1.39
2019-04-05T03:05:59.937Z,1.43
2019-04-05T03:08:28.765Z,1.51
2019-04-05T03:11:06.031Z,1.60
2019-04-05T03:13:37.540Z,1.57
2019-04-05T03:16:09.235Z,1.60
2019-04-05T03:18:40.702Z,1.67
2019-04-05T03:21:09.992Z,1.80
2019-04-05T03:23:41.535Z,1.78
2019-04-05T03:26:13.049Z,1.75
2019-04-05T03:28:44.081Z,1.72
2019-04-05T03:31:13.241Z,1.70
2019-04-05T03:33:42.283Z,1.74
2019-04-05T03:36:10.862Z,1.79
2019-04-05T03:38:39.348Z,1.83
2019-04-05T03:41:08.297Z,1.78
2019-04-05T03:43:37.085Z,1.79
2019-04-05T03:46:06.442Z,1.76
2019-04-05T03:48:35.352Z,1.78
2019-04-05T03:51:03.958Z,1.81
2019-04-05T03:53:32.441Z,1.87
2019-04-05T03:56:02.048Z,1.88
2019-04-05T03:58:30.519Z,1.85
2019-04-05T04:00:59.146Z,1.79
2019-04-05T04:03:27.729Z,1.80
2019-04-05T04:05:56.242Z,1.80
2019-04-05T04:08:24.911Z,1.79
2019-04-05T04:10:55.084Z,1.84
2019-04-05T04:13:23.674Z,1.82
2019-04-05T04:15:53.128Z,1.85
2019-04-05T04:18:21.693Z,1.92
2019-04-05T04:20:53.526Z,1.90
2019-04-05T04:23:25.116Z,1.91
2019-04-05T04:25:55.213Z,1.93
2019-04-05T04:28:24.280Z,2.03
2019-04-05T04:30:52.941Z,1.95
2019-04-05T04:33:21.638Z,1.96
2019-04-05T04:35:51.003Z,2.01
2019-04-05T04:38:20.012Z,1.95
2019-04-05T04:40:48.806Z,1.65
2019-04-05T04:43:17.695Z,1.62
2019-04-05T04:45:46.693Z,1.47
2019-04-05T04:48:15.883Z,1.55
2019-04-05T04:50:44.735Z,1.74
2019-04-05T04:53:13.592Z,1.74
2019-04-05T04:55:42.280Z,1.65
2019-04-05T04:58:10.986Z,1.43
2019-04-05T05:00:39.710Z,1.54
2019-04-05T05:03:08.406Z,1.57
2019-04-05T05:05:36.980Z,1.65
2019-04-05T05:08:06.064Z,1.69
2019-04-05T05:10:34.645Z,1.75
2019-04-05T05:13:03.447Z,1.78
2019-04-05T05:15:32.100Z,1.90
2019-04-05T05:18:01.576Z,1.87
2019-04-05T05:20:30.307Z,1.90
2019-04-05T05:22:59.181Z,1.96
2019-04-05T05:25:27.988Z,2.00
2019-04-05T05:27:57.273Z,2.00
2019-04-05T05:30:27.479Z,2.04
2019-04-05T05:32:56.347Z,2.08
2019-04-05T05:35:25.092Z,2.18
2019-04-05T05:37:54.152Z,2.14
2019-04-05T05:40:34.101Z,2.14
2019-04-05T05:42:53.013Z,2.09
2019-04-05T05:45:21.620Z,2.20
2019-04-05T05:47:52.141Z,2.29
2019-04-05T05:50:20.743Z,2.01
2019-04-05T05:52:50.226Z,2.12
2019-04-05T05:55:18.843Z,2.08
2019-04-05T05:57:47.273Z,2.19
2019-04-05T06:00:17.422Z,2.29
2019-04-05T06:02:48.249Z,2.19
2019-04-05T06:05:16.338Z,2.28
2019-04-05T06:07:46.305Z,2.38
2019-04-05T06:10:15.063Z,2.43
2019-04-05T06:12:43.508Z,2.48
2019-04-05T06:15:12.070Z,2.61
2019-04-05T06:17:40.481Z,2.61
2019-04-05T06:20:09.471Z,2.59
2019-04-05T06:22:38.012Z,2.65
2019-04-05T06:25:07.669Z,2.75
2019-04-05T06:27:36.215Z,2.71
2019-04-05T06:30:08.924Z,2.75
2019-04-05T06:32:37.327Z,2.85
2019-04-05T06:35:06.933Z,2.87
2019-04-05T06:37:35.443Z,2.97
2019-04-05T06:40:06.438Z,2.93
2019-04-05T06:42:34.864Z,2.90
2019-04-05T06:45:03.689Z,2.90
2019-04-05T06:47:32.117Z,2.94
2019-04-05T06:50:00.529Z,3.03
2019-04-05T06:52:28.988Z,3.12
2019-04-05T06:54:57.410Z,3.16
2019-04-05T06:57:25.942Z,3.15
2019-04-05T06:59:54.467Z,3.13
2019-04-05T07:02:23.008Z,3.08
2019-04-05T07:04:51.463Z,3.10
2019-04-05T07:07:19.910Z,3.07
2019-04-05T07:09:48.353Z,3.10
2019-04-05T07:12:16.777Z,3.14
2019-04-05T07:14:45.228Z,3.04
2019-04-05T07:17:13.650Z,3.12
2019-04-05T07:19:42.164Z,3.11
2019-04-05T07:22:10.622Z,3.20
2019-04-05T07:24:39.093Z,3.27
2019-04-05T07:27:07.596Z,3.40
2019-04-05T07:29:36.073Z,3.41
2019-04-05T07:32:05.483Z,3.44
2019-04-05T07:34:33.958Z,3.65
2019-04-05T07:37:02.445Z,3.62
2019-04-05T07:39:31.038Z,3.63
2019-04-05T07:41:59.463Z,3.71
2019-04-05T07:44:28.054Z,3.72
2019-04-05T07:46:56.588Z,3.78
2019-04-05T07:49:25.065Z,3.85
2019-04-05T07:51:53.489Z,3.71
2019-04-05T07:54:22.155Z,3.78
2019-04-05T07:56:50.603Z,3.87
2019-04-05T07:59:20.895Z,3.66
2019-04-05T08:01:49.284Z,3.46
2019-04-05T08:04:17.778Z,3.71
2019-04-05T08:06:48.652Z,3.88
2019-04-05T08:09:18.787Z,3.95
2019-04-05T08:11:47.986Z,3.89
2019-04-05T08:14:18.095Z,3.97
2019-04-05T08:16:46.904Z,4.09
2019-04-05T08:19:15.465Z,4.22
2019-04-05T08:21:43.945Z,4.41
2019-04-05T08:24:12.515Z,4.44
2019-04-05T08:26:40.977Z,4.56
2019-04-05T08:29:09.440Z,4.62
2019-04-05T08:31:37.941Z,5.04
2019-04-05T08:34:06.481Z,5.43
2019-04-05T08:36:34.909Z,5.33
2019-04-05T08:39:05.083Z,5.58
2019-04-05T08:41:33.549Z,5.53
2019-04-05T08:44:02.000Z,5.51
2019-04-05T08:46:30.531Z,5.76
2019-04-05T08:49:09.995Z,6.54
2019-04-05T08:51:29.188Z,6.72
2019-04-05T08:53:57.601Z,5.66
2019-04-05T08:56:26.159Z,6.06
2019-04-05T08:58:54.588Z,6.18
2019-04-05T09:01:23.061Z,6.10
2019-04-05T09:03:51.590Z,6.67
2019-04-05T09:06:20.018Z,5.98
2019-04-05T09:08:48.477Z,6.20
2019-04-05T09:11:16.927Z,6.45
2019-04-05T09:13:45.452Z,7.52
2019-04-05T09:16:13.972Z,7.48
2019-04-05T09:18:42.448Z,8.83
2019-04-05T09:21:10.941Z,8.58
2019-04-05T09:23:39.371Z,7.78
2019-04-05T09:26:07.901Z,7.87
2019-04-05T09:28:36.321Z,8.23
2019-04-05T09:31:04.858Z,8.16
2019-04-05T09:33:33.351Z,7.30
2019-04-05T09:36:01.827Z,6.99
2019-04-05T09:38:30.275Z,6.78
2019-04-05T09:40:58.745Z,6.83
2019-04-05T09:43:27.226Z,7.25
2019-04-05T09:45:55.756Z,6.82
2019-04-05T09:48:24.460Z,6.99
2019-04-05T09:50:53.082Z,7.11
2019-04-05T09:53:21.614Z,7.21
2019-04-05T09:55:50.069Z,6.83
2019-04-05T09:58:18.551Z,6.30
2019-04-05T10:00:47.055Z,6.50
2019-04-05T10:03:15.518Z,5.59
2019-04-05T10:05:44.017Z,6.86
2019-04-05T10:08:12.807Z,7.76
2019-04-05T10:10:41.303Z,8.66
2019-04-05T10:13:10.087Z,8.02
2019-04-05T10:15:38.736Z,7.98
2019-04-05T10:18:07.276Z,7.10
2019-04-05T10:20:38.815Z,7.14
2019-04-05T10:23:06.215Z,7.19
2019-04-05T10:25:34.711Z,7.83
2019-04-05T10:28:03.185Z,7.83
2019-04-05T10:30:31.606Z,7.35
2019-04-05T10:33:00.085Z,6.81
2019-04-05T10:35:28.511Z,8.18
2019-04-05T10:37:58.434Z,8.09
2019-04-05T10:40:27.224Z,8.41
2019-04-05T10:42:55.691Z,8.39
2019-04-05T10:45:24.264Z,8.48
2019-04-05T10:47:52.733Z,7.24
2019-04-05T10:50:21.490Z,7.22
2019-04-05T10:52:50.030Z,7.98
2019-04-05T10:55:18.778Z,8.58
2019-04-05T10:57:48.920Z,8.75
2019-04-05T11:00:19.743Z,7.38
2019-04-05T11:02:48.263Z,7.74
2019-04-05T11:05:16.988Z,7.75
2019-04-05T11:07:45.438Z,7.60
2019-04-05T11:10:14.519Z,7.62
2019-04-05T11:12:43.047Z,7.98
2019-04-05T11:15:14.979Z,7.85
2019-04-05T11:17:42.631Z,7.69
2019-04-05T11:20:21.377Z,7.79
2019-04-05T11:22:41.993Z,7.87
2019-04-05T11:25:11.603Z,7.75
2019-04-05T11:27:40.083Z,7.23
2019-04-05T11:30:09.771Z,7.62
2019-04-05T11:32:38.546Z,7.59
2019-04-05T11:35:08.145Z,7.34
2019-04-05T11:37:39.538Z,7.65
2019-04-05T11:40:10.116Z,7.44
2019-04-05T11:42:38.978Z,7.47
2019-04-05T11:45:09.292Z,7.28
2019-04-05T11:47:38.757Z,6.93
2019-04-05T11:50:13.186Z,7.03
2019-04-05T11:52:42.017Z,7.06
2019-04-05T11:55:10.528Z,7.00
2019-04-05T11:57:41.060Z,7.16
2019-04-05T12:00:14.544Z,7.36
2019-04-05T12:02:44.758Z,7.27
2019-04-05T12:05:14.989Z,7.56
2019-04-05T12:07:43.508Z,7.59
2019-04-05T12:10:12.147Z,7.93
2019-04-05T12:12:40.615Z,8.16
2019-04-05T12:15:09.311Z,7.96
2019-04-05T12:17:37.809Z,8.31
2019-04-05T12:20:08.007Z,8.20
2019-04-05T12:22:36.540Z,7.84
2019-04-05T12:25:07.342Z,8.31
2019-04-05T12:27:36.070Z,7.99
2019-04-05T12:30:08.604Z,7.45
2019-04-05T12:32:41.258Z,7.19
2019-04-05T12:35:08.640Z,7.22
2019-04-05T12:37:49.612Z,7.76
2019-04-05T12:40:10.211Z,7.20
2019-04-05T12:42:38.576Z,7.52
2019-04-05T12:45:07.521Z,7.78
2019-04-05T12:47:36.088Z,7.42
2019-04-05T12:50:06.215Z,7.50
2019-04-05T12:52:34.706Z,7.64
2019-04-05T12:55:03.336Z,7.48
2019-04-05T12:57:31.917Z,7.45
2019-04-05T13:00:00.321Z,7.72
2019-04-05T13:02:33.881Z,7.00
2019-04-05T13:04:59.085Z,6.96
2019-04-05T13:07:27.497Z,7.22
2019-04-05T13:09:55.988Z,7.16
2019-04-05T13:12:26.238Z,7.20
2019-04-05T13:14:59.611Z,6.98
2019-04-05T13:17:24.803Z,6.92
2019-04-05T13:19:53.224Z,7.21
2019-04-05T13:22:24.479Z,7.06
2019-04-05T13:24:52.907Z,6.84
2019-04-05T13:27:21.403Z,6.88
2019-04-05T13:29:49.935Z,6.96
2019-04-05T13:32:21.381Z,7.09
2019-04-05T13:34:48.551Z,6.97
2019-04-05T13:37:20.430Z,7.43
2019-04-05T13:39:48.882Z,7.66
2019-04-05T13:42:17.405Z,7.16
2019-04-05T13:44:45.843Z,7.54
2019-04-05T13:47:14.337Z,7.09
2019-04-05T13:49:42.811Z,7.24
2019-04-05T13:52:12.626Z,7.52
2019-04-05T13:54:41.190Z,7.54
2019-04-05T13:57:11.427Z,7.27
2019-04-05T13:59:39.818Z,7.03
2019-04-05T14:02:08.714Z,7.04
2019-04-05T14:04:37.240Z,6.90
2019-04-05T14:07:05.900Z,7.02
2019-04-05T14:09:34.513Z,6.68
2019-04-05T14:12:04.036Z,6.90
2019-04-05T14:14:32.575Z,7.10
2019-04-05T14:17:01.266Z,6.79
2019-04-05T14:19:30.003Z,7.15
2019-04-05T14:22:08.326Z,6.88
2019-04-05T14:24:28.771Z,7.00
2019-04-05T14:26:57.378Z,7.30
2019-04-05T14:29:25.809Z,6.95
2019-04-05T14:31:54.459Z,7.12
2019-04-05T14:34:23.728Z,7.20
2019-04-05T14:36:52.938Z,7.10
2019-04-05T14:39:21.540Z,6.93
2019-04-05T14:41:50.022Z,6.68
2019-04-05T14:44:18.666Z,6.77
2019-04-05T14:46:47.130Z,6.86
2019-04-05T14:49:15.571Z,6.50
2019-04-05T14:51:52.869Z,6.52
2019-04-05T14:54:14.276Z,6.83
2019-04-05T14:56:42.756Z,6.70
2019-04-05T14:59:11.423Z,7.05
2019-04-05T15:01:39.940Z,7.23
2019-04-05T15:04:08.543Z,6.92
2019-04-05T15:06:37.062Z,6.95
2019-04-05T15:09:07.030Z,7.22
2019-04-05T15:11:35.558Z,6.82
2019-04-05T15:14:04.401Z,6.96
2019-04-05T15:16:32.925Z,6.79
2019-04-05T15:19:01.435Z,6.85
2019-04-05T15:21:29.891Z,6.66
2019-04-05T15:23:58.482Z,6.59
2019-04-05T15:26:27.055Z,6.55
2019-04-05T15:28:55.831Z,6.69
2019-04-05T15:31:26.537Z,6.69
2019-04-05T15:33:55.651Z,6.76
2019-04-05T15:36:24.673Z,6.57
2019-04-05T15:38:53.105Z,6.92
2019-04-05T15:41:22.009Z,6.75
2019-04-05T15:43:50.572Z,6.70
2019-04-05T15:46:19.071Z,6.89
2019-04-05T15:48:49.620Z,6.67
2019-04-05T15:51:18.011Z,6.67
2019-04-05T15:53:46.437Z,6.65
2019-04-05T15:56:14.852Z,6.54
2019-04-05T15:58:43.532Z,6.72
2019-04-05T16:01:12.337Z,6.90
2019-04-05T16:03:41.278Z,6.95
2019-04-05T16:06:09.888Z,6.85
2019-04-05T16:08:38.383Z,7.02
2019-04-05T16:11:06.982Z,7.12
2019-04-05T16:13:35.445Z,7.06
2019-04-05T16:16:03.944Z,6.91
2019-04-05T16:18:32.447Z,6.95
2019-04-05T16:21:01.121Z,7.15
2019-04-05T16:23:29.651Z,7.37
2019-04-05T16:25:58.149Z,7.49
2019-04-05T16:28:26.614Z,7.43
2019-04-05T16:30:55.166Z,7.41
2019-04-05T16:33:23.604Z,7.59
2019-04-05T16:35:52.125Z,7.52
2019-04-05T16:38:20.629Z,7.18
2019-04-05T16:40:49.178Z,7.07
2019-04-05T16:43:17.680Z,7.32
2019-04-05T16:45:46.200Z,7.49
2019-04-05T16:48:14.729Z,7.30
2019-04-05T16:50:43.162Z,7.19
2019-04-05T16:53:11.620Z,7.10
2019-04-05T16:55:40.192Z,7.16
2019-04-05T16:58:08.718Z,6.99
2019-04-05T17:00:37.234Z,7.01
2019-04-05T17:03:05.741Z,6.95
2019-04-05T17:05:34.281Z,6.99
2019-04-05T17:08:02.868Z,6.59
2019-04-05T17:10:31.353Z,6.38
2019-04-05T17:12:59.887Z,6.36
2019-04-05T17:15:28.549Z,6.55
2019-04-05T17:17:57.013Z,6.35
2019-04-05T17:20:25.442Z,6.45
2019-04-05T17:22:58.311Z,6.56
2019-04-05T17:25:24.124Z,6.70
2019-04-05T17:27:52.705Z,6.49
2019-04-05T17:30:21.193Z,6.45
2019-04-05T17:32:49.661Z,6.58
2019-04-05T17:35:19.456Z,6.30
2019-04-05T17:37:47.909Z,6.14
2019-04-05T17:40:16.518Z,6.32
2019-04-05T17:42:45.024Z,6.34
2019-04-05T17:45:13.517Z,6.17
2019-04-05T17:47:42.072Z,5.95
2019-04-05T17:50:12.033Z,5.99
2019-04-05T17:52:40.520Z,6.15
2019-04-05T17:55:09.118Z,5.98
2019-04-05T17:57:37.622Z,5.86
2019-04-05T18:00:09.743Z,6.02
2019-04-05T18:02:38.328Z,5.95
2019-04-05T18:05:07.518Z,6.14
2019-04-05T18:07:35.971Z,5.98
2019-04-05T18:10:05.729Z,6.01
2019-04-05T18:12:34.267Z,6.01
2019-04-05T18:15:02.799Z,5.96
2019-04-05T18:17:31.216Z,5.94
2019-04-05T18:19:59.655Z,5.90
2019-04-05T18:22:28.177Z,5.95
2019-04-05T18:24:56.620Z,5.99
2019-04-05T18:27:25.056Z,6.12
2019-04-05T18:29:53.590Z,6.20
2019-04-05T18:32:22.034Z,6.24
2019-04-05T18:34:50.454Z,6.21
2019-04-05T18:37:18.987Z,6.24
2019-04-05T18:39:47.414Z,6.34
2019-04-05T18:42:15.900Z,6.05
2019-04-05T18:44:44.482Z,6.25
2019-04-05T18:47:13.103Z,5.95
2019-04-05T18:49:41.625Z,5.75
2019-04-05T18:52:10.173Z,5.82
2019-04-05T18:54:38.591Z,6.01
2019-04-05T18:57:07.126Z,6.20
2019-04-05T18:59:35.585Z,6.15
2019-04-05T19:02:04.092Z,6.17
2019-04-05T19:04:32.540Z,6.16
2019-04-05T19:07:01.760Z,5.84
2019-04-05T19:09:30.328Z,5.60
2019-04-05T19:11:58.832Z,5.55
2019-04-05T19:14:27.324Z,5.58
2019-04-05T19:16:55.748Z,5.46
2019-04-05T19:19:24.297Z,5.68
2019-04-05T19:21:52.814Z,5.51
2019-04-05T19:24:21.608Z,5.44
2019-04-05T19:26:50.115Z,5.39
2019-04-05T19:29:18.628Z,5.47
2019-04-05T19:49:18.878Z,5.37
2019-04-05T19:51:47.353Z,5.30
2019-04-05T19:54:15.787Z,5.28
2019-04-05T19:56:44.303Z,5.16
2019-04-05T19:59:12.861Z,5.13
2019-04-05T20:01:41.335Z,5.16
2019-04-05T20:04:09.760Z,5.10
2019-04-05T20:06:38.289Z,5.30
2019-04-05T20:09:07.296Z,5.33
2019-04-05T20:11:35.910Z,5.32
2019-04-05T20:14:04.550Z,5.24
2019-04-05T20:16:32.969Z,5.10
2019-04-05T20:19:01.596Z,5.15
2019-04-05T20:21:30.052Z,5.17
2019-04-05T20:23:58.483Z,4.80
2019-04-05T20:26:26.949Z,4.75
2019-04-05T20:28:55.391Z,4.88
2019-04-05T20:31:23.847Z,4.69
2019-04-05T20:33:52.434Z,4.66
2019-04-05T20:36:20.907Z,4.55
2019-04-05T20:38:49.532Z,4.49
2019-04-05T20:41:17.972Z,4.37
2019-04-05T20:43:46.466Z,4.34
2019-04-05T20:46:14.952Z,4.57
2019-04-05T20:48:43.403Z,4.48
2019-04-05T20:51:11.823Z,4.25
2019-04-05T20:53:40.352Z,4.15
2019-04-05T20:56:08.860Z,4.15
2019-04-05T20:58:37.601Z,4.12
2019-04-05T21:01:06.178Z,4.06
2019-04-05T21:03:34.616Z,3.99
2019-04-05T21:06:03.185Z,3.84
2019-04-05T21:08:31.618Z,3.96
2019-04-05T21:11:00.148Z,3.38
2019-04-05T21:13:28.600Z,3.15
2019-04-05T21:15:57.101Z,3.15
2019-04-05T21:18:25.561Z,3.03
2019-04-05T21:20:54.140Z,2.97
2019-04-05T21:23:22.577Z,3.00
2019-04-05T21:25:51.157Z,2.55
2019-04-05T21:28:19.623Z,2.74
2019-04-05T21:30:48.074Z,2.76
2019-04-05T21:33:16.506Z,2.80
2019-04-05T21:35:46.205Z,2.78
2019-04-05T21:38:14.678Z,2.90
2019-04-05T21:40:43.211Z,2.73
2019-04-05T21:43:11.664Z,2.58
2019-04-05T21:45:40.184Z,2.67
2019-04-05T21:48:08.694Z,2.62
2019-04-05T21:50:37.147Z,2.62
2019-04-05T21:53:05.614Z,2.29
2019-04-05T21:55:34.101Z,2.43
2019-04-05T21:58:02.658Z,2.46
2019-04-05T22:00:35.201Z,2.17
2019-04-05T22:03:03.666Z,2.34
2019-04-05T22:05:32.215Z,2.28
2019-04-05T22:08:00.793Z,2.20
2019-04-05T22:10:29.273Z,2.11
2019-04-05T22:12:57.706Z,2.49
2019-04-05T22:15:26.166Z,2.14
2019-04-05T22:17:54.614Z,1.75
2019-04-05T22:20:23.103Z,1.55
2019-04-05T22:22:51.602Z,1.85
2019-04-05T22:25:20.035Z,1.71
2019-04-05T22:27:48.485Z,1.71
2019-04-05T22:30:17.056Z,1.91
2019-04-05T22:32:45.605Z,1.78
2019-04-05T22:35:14.066Z,1.76
2019-04-05T22:37:42.591Z,1.84
2019-04-05T22:40:11.183Z,1.84
2019-04-05T22:42:39.593Z,2.10
2019-04-05T22:45:08.397Z,2.07
2019-04-05T22:47:36.867Z,2.04
2019-04-05T22:50:08.312Z,2.02
2019-04-05T22:52:36.769Z,1.83
2019-04-05T22:55:11.570Z,1.72
2019-04-05T22:57:36.918Z,1.56
2019-04-05T23:00:08.903Z,1.61
2019-04-05T23:02:37.439Z,1.65
2019-04-05T23:05:19.827Z,1.56
2019-04-05T23:07:39.311Z,1.44
2019-04-05T23:10:09.317Z,1.40
2019-04-05T23:12:37.708Z,1.21
2019-04-05T23:15:08.006Z,1.20
2019-04-05T23:17:36.597Z,1.18
2019-04-05T23:20:06.217Z,1.31
2019-04-05T23:22:34.808Z,1.31
2019-04-05T23:25:03.807Z,1.20
2019-04-05T23:27:32.264Z,0.89
2019-04-05T23:30:01.555Z,1.00
2019-04-05T23:32:30.018Z,1.08
2019-04-05T23:34:58.474Z,1.07
2019-04-05T23:37:26.884Z,0.97
2019-04-05T23:39:55.340Z,1.13
2019-04-05T23:42:23.804Z,1.15
2019-04-05T23:44:52.259Z,1.11
2019-04-05T23:47:20.690Z,1.05
2019-04-05T23:49:49.154Z,1.15
2019-04-05T23:52:17.605Z,0.95
2019-04-05T23:54:46.054Z,0.93
2019-04-05T23:57:14.499Z,0.87
2019-04-05T23:59:42.957Z,0.86
